sensor_id;sensor_type;location;lat;lon;timestamp;P1;durP1;ratioP1;P2;durP2;ratioP2
9948;SDS011;5013;51.840;8.276;2022-08-05T00:00:34;6.43;;;2.90;;
9948;SDS011;5013;51.840;8.276;2022-08-05T00:02:59;6.80;;;2.87;;
9948;SDS011;5013;51.840;8.276;2022-08-05T00:05:25;5.93;;;2.80;;
9948;SDS011;5013;51.840;8.276;2022-08-05T00:07:51;7.47;;;3.00;;
9948;SDS011;5013;51.840;8.276;2022-08-05T00:10:16;7.47;;;3.17;;
9948;SDS011;5013;51.840;8.276;2022-08-05T00:12:42;7.87;;;2.53;;
9948;SDS011;5013;51.840;8.276;2022-08-05T00:15:08;3.67;;;2.50;;
9948;SDS011;5013;51.840;8.276;2022-08-05T00:17:34;6.87;;;2.93;;
9948;SDS011;5013;51.840;8.276;2022-08-05T00:19:59;9.27;;;2.97;;
9948;SDS011;5013;51.840;8.276;2022-08-05T00:22:25;8.57;;;2.70;;
9948;SDS011;5013;51.840;8.276;2022-08-05T00:24:51;2.37;;;2.20;;
9948;SDS011;5013;51.840;8.276;2022-08-05T00:27:16;6.67;;;2.77;;
9948;SDS011;5013;51.840;8.276;2022-08-05T00:29:42;3.60;;;2.40;;
9948;SDS011;5013;51.840;8.276;2022-08-05T00:32:08;7.10;;;2.73;;
9948;SDS011;5013;51.840;8.276;2022-08-05T00:34:38;5.07;;;2.40;;
9948;SDS011;5013;51.840;8.276;2022-08-05T00:37:04;3.37;;;2.40;;
9948;SDS011;5013;51.840;8.276;2022-08-05T00:39:30;4.83;;;2.87;;
9948;SDS011;5013;51.840;8.276;2022-08-05T00:41:56;5.67;;;2.90;;
9948;SDS011;5013;51.840;8.276;2022-08-05T00:44:22;11.17;;;3.40;;
9948;SDS011;5013;51.840;8.276;2022-08-05T00:46:48;5.43;;;3.00;;
9948;SDS011;5013;51.840;8.276;2022-08-05T00:49:14;5.47;;;3.20;;
9948;SDS011;5013;51.840;8.276;2022-08-05T00:51:43;8.13;;;3.63;;
9948;SDS011;5013;51.840;8.276;2022-08-05T00:54:10;8.60;;;3.87;;
9948;SDS011;5013;51.840;8.276;2022-08-05T00:56:36;7.67;;;3.87;;
9948;SDS011;5013;51.840;8.276;2022-08-05T00:59:02;10.13;;;4.60;;
9948;SDS011;5013;51.840;8.276;2022-08-05T01:01:30;10.10;;;3.80;;
9948;SDS011;5013;51.840;8.276;2022-08-05T01:03:55;8.97;;;4.40;;
9948;SDS011;5013;51.840;8.276;2022-08-05T01:06:21;11.73;;;3.97;;
9948;SDS011;5013;51.840;8.276;2022-08-05T01:08:47;8.13;;;3.87;;
9948;SDS011;5013;51.840;8.276;2022-08-05T01:11:20;8.93;;;4.00;;
9948;SDS011;5013;51.840;8.276;2022-08-05T01:13:57;8.60;;;4.03;;
9948;SDS011;5013;51.840;8.276;2022-08-05T01:30:13;8.43;;;4.10;;
9948;SDS011;5013;51.840;8.276;2022-08-05T01:32:40;4.37;;;3.73;;
9948;SDS011;5013;51.840;8.276;2022-08-05T01:35:12;6.93;;;3.80;;
9948;SDS011;5013;51.840;8.276;2022-08-05T01:40:13;5.03;;;3.43;;
9948;SDS011;5013;51.840;8.276;2022-08-05T01:42:41;3.77;;;3.20;;
9948;SDS011;5013;51.840;8.276;2022-08-05T01:45:10;4.30;;;3.03;;
9948;SDS011;5013;51.840;8.276;2022-08-05T01:47:39;3.20;;;3.00;;
9948;SDS011;5013;51.840;8.276;2022-08-05T01:50:07;5.63;;;3.40;;
9948;SDS011;5013;51.840;8.276;2022-08-05T01:52:42;5.87;;;3.20;;
9948;SDS011;5013;51.840;8.276;2022-08-05T01:55:10;3.70;;;2.90;;
9948;SDS011;5013;51.840;8.276;2022-08-05T01:57:41;4.33;;;3.00;;
9948;SDS011;5013;51.840;8.276;2022-08-05T02:00:10;7.97;;;3.30;;
9948;SDS011;5013;51.840;8.276;2022-08-05T02:02:38;5.80;;;2.93;;
9948;SDS011;5013;51.840;8.276;2022-08-05T02:05:08;3.93;;;2.40;;
9948;SDS011;5013;51.840;8.276;2022-08-05T02:07:37;9.77;;;2.83;;
9948;SDS011;5013;51.840;8.276;2022-08-05T02:10:04;4.63;;;2.90;;
9948;SDS011;5013;51.840;8.276;2022-08-05T02:12:36;7.90;;;3.47;;
9948;SDS011;5013;51.840;8.276;2022-08-05T02:15:31;12.30;;;3.73;;
9948;SDS011;5013;51.840;8.276;2022-08-05T02:18:09;4.60;;;3.23;;
9948;SDS011;5013;51.840;8.276;2022-08-05T02:20:41;5.83;;;2.97;;
9948;SDS011;5013;51.840;8.276;2022-08-05T02:23:11;4.47;;;3.37;;
9948;SDS011;5013;51.840;8.276;2022-08-05T02:25:39;4.07;;;3.20;;
9948;SDS011;5013;51.840;8.276;2022-08-05T02:28:07;3.10;;;2.50;;
9948;SDS011;5013;51.840;8.276;2022-08-05T02:30:37;3.30;;;2.90;;
9948;SDS011;5013;51.840;8.276;2022-08-05T02:33:17;8.50;;;3.20;;
9948;SDS011;5013;51.840;8.276;2022-08-05T02:35:44;6.60;;;3.23;;
9948;SDS011;5013;51.840;8.276;2022-08-05T02:38:11;5.40;;;3.00;;
9948;SDS011;5013;51.840;8.276;2022-08-05T02:40:40;3.97;;;3.17;;
9948;SDS011;5013;51.840;8.276;2022-08-05T02:43:08;5.60;;;2.70;;
9948;SDS011;5013;51.840;8.276;2022-08-05T02:45:37;5.13;;;2.80;;
9948;SDS011;5013;51.840;8.276;2022-08-05T02:48:05;3.77;;;2.87;;
9948;SDS011;5013;51.840;8.276;2022-08-05T02:50:33;3.87;;;2.93;;
9948;SDS011;5013;51.840;8.276;2022-08-05T02:52:59;7.30;;;3.60;;
9948;SDS011;5013;51.840;8.276;2022-08-05T02:55:26;4.00;;;3.27;;
9948;SDS011;5013;51.840;8.276;2022-08-05T02:57:54;9.50;;;3.83;;
9948;SDS011;5013;51.840;8.276;2022-08-05T03:00:22;3.67;;;3.37;;
9948;SDS011;5013;51.840;8.276;2022-08-05T03:02:48;4.13;;;3.40;;
9948;SDS011;5013;51.840;8.276;2022-08-05T03:05:14;6.90;;;3.47;;
9948;SDS011;5013;51.840;8.276;2022-08-05T03:07:41;8.00;;;4.20;;
9948;SDS011;5013;51.840;8.276;2022-08-05T03:10:08;10.33;;;4.90;;
9948;SDS011;5013;51.840;8.276;2022-08-05T03:12:37;5.30;;;4.73;;
9948;SDS011;5013;51.840;8.276;2022-08-05T03:15:04;8.87;;;5.00;;
9948;SDS011;5013;51.840;8.276;2022-08-05T03:17:32;9.37;;;4.43;;
9948;SDS011;5013;51.840;8.276;2022-08-05T03:19:58;10.17;;;4.33;;
9948;SDS011;5013;51.840;8.276;2022-08-05T03:22:24;7.00;;;4.57;;
9948;SDS011;5013;51.840;8.276;2022-08-05T03:24:50;7.37;;;5.43;;
9948;SDS011;5013;51.840;8.276;2022-08-05T03:27:17;10.07;;;4.97;;
9948;SDS011;5013;51.840;8.276;2022-08-05T03:29:43;6.30;;;4.73;;
9948;SDS011;5013;51.840;8.276;2022-08-05T03:32:09;7.27;;;4.37;;
9948;SDS011;5013;51.840;8.276;2022-08-05T03:34:35;7.07;;;5.33;;
9948;SDS011;5013;51.840;8.276;2022-08-05T03:37:02;8.33;;;5.37;;
9948;SDS011;5013;51.840;8.276;2022-08-05T03:39:28;9.70;;;4.90;;
9948;SDS011;5013;51.840;8.276;2022-08-05T03:41:54;10.33;;;5.53;;
9948;SDS011;5013;51.840;8.276;2022-08-05T03:44:20;10.30;;;5.40;;
9948;SDS011;5013;51.840;8.276;2022-08-05T03:46:46;7.30;;;5.70;;
9948;SDS011;5013;51.840;8.276;2022-08-05T03:49:12;12.63;;;5.80;;
9948;SDS011;5013;51.840;8.276;2022-08-05T03:51:38;10.30;;;5.73;;
9948;SDS011;5013;51.840;8.276;2022-08-05T03:54:22;8.93;;;6.37;;
9948;SDS011;5013;51.840;8.276;2022-08-05T03:57:01;12.03;;;6.50;;
9948;SDS011;5013;51.840;8.276;2022-08-05T03:59:42;8.63;;;5.83;;
9948;SDS011;5013;51.840;8.276;2022-08-05T04:02:13;10.17;;;6.10;;
9948;SDS011;5013;51.840;8.276;2022-08-05T04:04:41;11.43;;;6.10;;
9948;SDS011;5013;51.840;8.276;2022-08-05T04:07:07;8.63;;;6.07;;
9948;SDS011;5013;51.840;8.276;2022-08-05T04:09:34;9.87;;;6.53;;
9948;SDS011;5013;51.840;8.276;2022-08-05T04:12:00;14.70;;;7.30;;
9948;SDS011;5013;51.840;8.276;2022-08-05T04:14:26;7.10;;;6.17;;
9948;SDS011;5013;51.840;8.276;2022-08-05T04:16:52;9.67;;;6.00;;
9948;SDS011;5013;51.840;8.276;2022-08-05T04:19:18;8.07;;;6.57;;
9948;SDS011;5013;51.840;8.276;2022-08-05T04:21:44;16.47;;;8.07;;
9948;SDS011;5013;51.840;8.276;2022-08-05T04:24:10;13.13;;;7.47;;
9948;SDS011;5013;51.840;8.276;2022-08-05T04:26:37;15.57;;;8.77;;
9948;SDS011;5013;51.840;8.276;2022-08-05T04:29:02;12.83;;;7.80;;
9948;SDS011;5013;51.840;8.276;2022-08-05T04:31:28;15.17;;;6.40;;
9948;SDS011;5013;51.840;8.276;2022-08-05T04:33:54;16.20;;;8.77;;
9948;SDS011;5013;51.840;8.276;2022-08-05T04:36:19;10.77;;;8.00;;
9948;SDS011;5013;51.840;8.276;2022-08-05T04:38:50;10.23;;;7.57;;
9948;SDS011;5013;51.840;8.276;2022-08-05T04:41:18;7.10;;;6.43;;
9948;SDS011;5013;51.840;8.276;2022-08-05T04:43:44;10.73;;;7.70;;
9948;SDS011;5013;51.840;8.276;2022-08-05T04:46:10;11.43;;;7.47;;
9948;SDS011;5013;51.840;8.276;2022-08-05T04:48:35;15.60;;;8.93;;
9948;SDS011;5013;51.840;8.276;2022-08-05T04:51:01;11.87;;;7.67;;
9948;SDS011;5013;51.840;8.276;2022-08-05T04:53:27;15.67;;;7.83;;
9948;SDS011;5013;51.840;8.276;2022-08-05T04:55:56;17.50;;;8.60;;
9948;SDS011;5013;51.840;8.276;2022-08-05T04:58:21;11.87;;;7.73;;
9948;SDS011;5013;51.840;8.276;2022-08-05T05:00:47;13.20;;;8.20;;
9948;SDS011;5013;51.840;8.276;2022-08-05T05:03:13;10.83;;;7.70;;
9948;SDS011;5013;51.840;8.276;2022-08-05T05:05:39;13.43;;;8.57;;
9948;SDS011;5013;51.840;8.276;2022-08-05T05:08:05;14.70;;;8.87;;
9948;SDS011;5013;51.840;8.276;2022-08-05T05:10:37;14.50;;;9.53;;
9948;SDS011;5013;51.840;8.276;2022-08-05T05:13:08;15.67;;;9.33;;
9948;SDS011;5013;51.840;8.276;2022-08-05T05:15:35;18.73;;;10.67;;
9948;SDS011;5013;51.840;8.276;2022-08-05T05:18:01;14.80;;;10.07;;
9948;SDS011;5013;51.840;8.276;2022-08-05T05:20:28;14.87;;;10.20;;
9948;SDS011;5013;51.840;8.276;2022-08-05T05:22:53;18.17;;;11.50;;
9948;SDS011;5013;51.840;8.276;2022-08-05T05:25:20;20.80;;;10.50;;
9948;SDS011;5013;51.840;8.276;2022-08-05T05:27:46;22.60;;;11.27;;
9948;SDS011;5013;51.840;8.276;2022-08-05T05:30:12;19.93;;;10.07;;
9948;SDS011;5013;51.840;8.276;2022-08-05T05:32:39;17.63;;;10.10;;
9948;SDS011;5013;51.840;8.276;2022-08-05T05:35:04;10.63;;;9.07;;
9948;SDS011;5013;51.840;8.276;2022-08-05T05:37:30;14.30;;;10.07;;
9948;SDS011;5013;51.840;8.276;2022-08-05T05:39:56;18.03;;;12.67;;
9948;SDS011;5013;51.840;8.276;2022-08-05T05:42:22;18.77;;;12.47;;
9948;SDS011;5013;51.840;8.276;2022-08-05T05:44:47;21.97;;;12.83;;
9948;SDS011;5013;51.840;8.276;2022-08-05T05:47:13;22.40;;;13.83;;
9948;SDS011;5013;51.840;8.276;2022-08-05T05:49:39;17.10;;;11.90;;
9948;SDS011;5013;51.840;8.276;2022-08-05T05:52:04;15.63;;;12.63;;
9948;SDS011;5013;51.840;8.276;2022-08-05T05:54:30;19.50;;;13.97;;
9948;SDS011;5013;51.840;8.276;2022-08-05T05:56:56;15.27;;;12.27;;
9948;SDS011;5013;51.840;8.276;2022-08-05T05:59:22;18.43;;;12.17;;
9948;SDS011;5013;51.840;8.276;2022-08-05T06:01:48;20.50;;;14.43;;
9948;SDS011;5013;51.840;8.276;2022-08-05T06:04:14;18.60;;;13.80;;
9948;SDS011;5013;51.840;8.276;2022-08-05T06:06:40;19.43;;;12.53;;
9948;SDS011;5013;51.840;8.276;2022-08-05T06:09:07;21.47;;;13.73;;
9948;SDS011;5013;51.840;8.276;2022-08-05T06:11:33;16.60;;;12.87;;
9948;SDS011;5013;51.840;8.276;2022-08-05T06:13:59;22.40;;;14.77;;
9948;SDS011;5013;51.840;8.276;2022-08-05T06:16:25;21.97;;;16.17;;
9948;SDS011;5013;51.840;8.276;2022-08-05T06:18:51;19.20;;;13.97;;
9948;SDS011;5013;51.840;8.276;2022-08-05T06:21:17;20.37;;;14.80;;
9948;SDS011;5013;51.840;8.276;2022-08-05T06:23:42;18.07;;;15.20;;
9948;SDS011;5013;51.840;8.276;2022-08-05T06:26:08;15.37;;;12.70;;
9948;SDS011;5013;51.840;8.276;2022-08-05T06:28:34;20.23;;;13.60;;
9948;SDS011;5013;51.840;8.276;2022-08-05T06:31:00;20.83;;;15.20;;
9948;SDS011;5013;51.840;8.276;2022-08-05T06:33:27;19.37;;;14.47;;
9948;SDS011;5013;51.840;8.276;2022-08-05T06:35:52;16.93;;;12.80;;
9948;SDS011;5013;51.840;8.276;2022-08-05T06:38:18;16.13;;;12.43;;
9948;SDS011;5013;51.840;8.276;2022-08-05T06:40:44;19.83;;;13.93;;
9948;SDS011;5013;51.840;8.276;2022-08-05T06:43:09;25.67;;;15.60;;
9948;SDS011;5013;51.840;8.276;2022-08-05T06:45:36;22.97;;;14.83;;
9948;SDS011;5013;51.840;8.276;2022-08-05T06:48:02;20.47;;;15.60;;
9948;SDS011;5013;51.840;8.276;2022-08-05T06:50:27;22.57;;;15.90;;
9948;SDS011;5013;51.840;8.276;2022-08-05T06:52:53;19.43;;;14.97;;
9948;SDS011;5013;51.840;8.276;2022-08-05T06:55:25;19.77;;;14.17;;
9948;SDS011;5013;51.840;8.276;2022-08-05T06:57:51;21.27;;;14.07;;
9948;SDS011;5013;51.840;8.276;2022-08-05T07:00:16;15.57;;;13.83;;
9948;SDS011;5013;51.840;8.276;2022-08-05T07:02:43;19.20;;;14.00;;
9948;SDS011;5013;51.840;8.276;2022-08-05T07:05:09;17.50;;;13.57;;
9948;SDS011;5013;51.840;8.276;2022-08-05T07:07:35;20.87;;;14.10;;
9948;SDS011;5013;51.840;8.276;2022-08-05T07:10:02;16.23;;;14.47;;
9948;SDS011;5013;51.840;8.276;2022-08-05T07:12:27;16.53;;;12.80;;
9948;SDS011;5013;51.840;8.276;2022-08-05T07:15:12;18.50;;;13.53;;
9948;SDS011;5013;51.840;8.276;2022-08-05T07:17:56;14.90;;;12.27;;
9948;SDS011;5013;51.840;8.276;2022-08-05T07:20:21;16.43;;;13.53;;
9948;SDS011;5013;51.840;8.276;2022-08-05T07:22:47;16.53;;;12.77;;
9948;SDS011;5013;51.840;8.276;2022-08-05T07:25:13;19.07;;;13.20;;
9948;SDS011;5013;51.840;8.276;2022-08-05T07:27:38;15.53;;;11.80;;
9948;SDS011;5013;51.840;8.276;2022-08-05T07:30:04;15.50;;;10.90;;
9948;SDS011;5013;51.840;8.276;2022-08-05T07:32:33;13.17;;;11.73;;
9948;SDS011;5013;51.840;8.276;2022-08-05T07:35:00;16.37;;;11.83;;
9948;SDS011;5013;51.840;8.276;2022-08-05T07:37:26;18.13;;;14.27;;
9948;SDS011;5013;51.840;8.276;2022-08-05T07:39:52;17.73;;;13.10;;
9948;SDS011;5013;51.840;8.276;2022-08-05T07:42:18;17.20;;;13.40;;
9948;SDS011;5013;51.840;8.276;2022-08-05T07:44:43;14.63;;;12.53;;
9948;SDS011;5013;51.840;8.276;2022-08-05T07:47:09;15.47;;;13.40;;
9948;SDS011;5013;51.840;8.276;2022-08-05T07:49:35;21.57;;;14.30;;
9948;SDS011;5013;51.840;8.276;2022-08-05T07:52:01;14.57;;;11.00;;
9948;SDS011;5013;51.840;8.276;2022-08-05T07:54:26;15.17;;;10.80;;
9948;SDS011;5013;51.840;8.276;2022-08-05T07:56:52;15.07;;;12.07;;
9948;SDS011;5013;51.840;8.276;2022-08-05T07:59:18;12.23;;;11.03;;
9948;SDS011;5013;51.840;8.276;2022-08-05T08:01:44;13.33;;;9.70;;
9948;SDS011;5013;51.840;8.276;2022-08-05T08:04:09;15.77;;;9.93;;
9948;SDS011;5013;51.840;8.276;2022-08-05T08:06:35;12.83;;;9.13;;
9948;SDS011;5013;51.840;8.276;2022-08-05T08:09:01;12.77;;;9.77;;
9948;SDS011;5013;51.840;8.276;2022-08-05T08:11:27;11.37;;;8.53;;
9948;SDS011;5013;51.840;8.276;2022-08-05T08:13:53;13.10;;;10.13;;
9948;SDS011;5013;51.840;8.276;2022-08-05T08:16:19;13.50;;;9.73;;
9948;SDS011;5013;51.840;8.276;2022-08-05T08:18:45;11.90;;;10.57;;
9948;SDS011;5013;51.840;8.276;2022-08-05T08:21:10;12.13;;;9.67;;
9948;SDS011;5013;51.840;8.276;2022-08-05T08:23:36;14.73;;;11.90;;
9948;SDS011;5013;51.840;8.276;2022-08-05T08:26:02;17.83;;;12.87;;
9948;SDS011;5013;51.840;8.276;2022-08-05T08:28:28;13.73;;;12.13;;
9948;SDS011;5013;51.840;8.276;2022-08-05T08:30:54;21.33;;;14.33;;
9948;SDS011;5013;51.840;8.276;2022-08-05T08:33:20;16.23;;;12.80;;
9948;SDS011;5013;51.840;8.276;2022-08-05T08:35:45;16.80;;;12.13;;
9948;SDS011;5013;51.840;8.276;2022-08-05T08:38:12;16.43;;;12.27;;
9948;SDS011;5013;51.840;8.276;2022-08-05T08:40:40;15.27;;;12.83;;
9948;SDS011;5013;51.840;8.276;2022-08-05T08:43:07;13.23;;;11.90;;
9948;SDS011;5013;51.840;8.276;2022-08-05T08:45:36;12.70;;;11.40;;
9948;SDS011;5013;51.840;8.276;2022-08-05T08:48:02;17.27;;;13.03;;
9948;SDS011;5013;51.840;8.276;2022-08-05T08:50:30;15.07;;;12.17;;
9948;SDS011;5013;51.840;8.276;2022-08-05T08:53:00;13.87;;;12.30;;
9948;SDS011;5013;51.840;8.276;2022-08-05T08:55:29;15.93;;;14.40;;
9948;SDS011;5013;51.840;8.276;2022-08-05T08:57:56;15.17;;;13.50;;
9948;SDS011;5013;51.840;8.276;2022-08-05T09:00:26;17.70;;;14.03;;
9948;SDS011;5013;51.840;8.276;2022-08-05T09:02:52;18.70;;;15.20;;
9948;SDS011;5013;51.840;8.276;2022-08-05T09:05:18;18.63;;;13.50;;
9948;SDS011;5013;51.840;8.276;2022-08-05T09:07:45;19.60;;;14.50;;
9948;SDS011;5013;51.840;8.276;2022-08-05T09:10:11;14.83;;;13.43;;
9948;SDS011;5013;51.840;8.276;2022-08-05T09:12:37;16.93;;;14.40;;
9948;SDS011;5013;51.840;8.276;2022-08-05T09:15:03;14.73;;;13.17;;
9948;SDS011;5013;51.840;8.276;2022-08-05T09:17:30;19.13;;;14.87;;
9948;SDS011;5013;51.840;8.276;2022-08-05T09:19:57;18.03;;;13.87;;
9948;SDS011;5013;51.840;8.276;2022-08-05T09:22:23;14.90;;;13.43;;
9948;SDS011;5013;51.840;8.276;2022-08-05T09:24:57;20.80;;;13.87;;
9948;SDS011;5013;51.840;8.276;2022-08-05T09:27:31;17.30;;;12.70;;
9948;SDS011;5013;51.840;8.276;2022-08-05T09:29:59;16.60;;;13.20;;
9948;SDS011;5013;51.840;8.276;2022-08-05T09:32:37;18.83;;;14.60;;
9948;SDS011;5013;51.840;8.276;2022-08-05T09:35:14;16.53;;;12.33;;
9948;SDS011;5013;51.840;8.276;2022-08-05T09:37:50;19.63;;;13.30;;
9948;SDS011;5013;51.840;8.276;2022-08-05T09:43:00;18.10;;;14.80;;
9948;SDS011;5013;51.840;8.276;2022-08-05T09:45:39;16.07;;;14.40;;
9948;SDS011;5013;51.840;8.276;2022-08-05T09:51:06;14.23;;;12.73;;
9948;SDS011;5013;51.840;8.276;2022-08-05T09:53:46;14.77;;;12.17;;
9948;SDS011;5013;51.840;8.276;2022-08-05T09:59:12;16.83;;;14.47;;
9948;SDS011;5013;51.840;8.276;2022-08-05T10:01:41;15.60;;;14.00;;
9948;SDS011;5013;51.840;8.276;2022-08-05T10:06:38;14.17;;;10.73;;
9948;SDS011;5013;51.840;8.276;2022-08-05T10:09:17;14.27;;;11.37;;
9948;SDS011;5013;51.840;8.276;2022-08-05T10:11:45;13.50;;;10.07;;
9948;SDS011;5013;51.840;8.276;2022-08-05T10:14:22;10.10;;;8.60;;
9948;SDS011;5013;51.840;8.276;2022-08-05T10:16:55;12.30;;;9.67;;
9948;SDS011;5013;51.840;8.276;2022-08-05T10:19:35;10.73;;;8.73;;
9948;SDS011;5013;51.840;8.276;2022-08-05T10:22:02;8.30;;;7.50;;
9948;SDS011;5013;51.840;8.276;2022-08-05T10:24:28;9.27;;;7.70;;
9948;SDS011;5013;51.840;8.276;2022-08-05T10:26:57;7.87;;;5.90;;
9948;SDS011;5013;51.840;8.276;2022-08-05T10:29:24;7.77;;;5.10;;
9948;SDS011;5013;51.840;8.276;2022-08-05T10:31:51;6.97;;;5.90;;
9948;SDS011;5013;51.840;8.276;2022-08-05T10:34:17;6.77;;;6.00;;
9948;SDS011;5013;51.840;8.276;2022-08-05T10:36:43;8.27;;;4.83;;
9948;SDS011;5013;51.840;8.276;2022-08-05T10:39:14;7.17;;;5.53;;
9948;SDS011;5013;51.840;8.276;2022-08-05T10:41:57;6.53;;;5.07;;
9948;SDS011;5013;51.840;8.276;2022-08-05T10:44:26;6.77;;;5.00;;
9948;SDS011;5013;51.840;8.276;2022-08-05T10:46:55;6.80;;;5.10;;
9948;SDS011;5013;51.840;8.276;2022-08-05T10:49:22;5.37;;;4.87;;
9948;SDS011;5013;51.840;8.276;2022-08-05T10:51:54;8.83;;;4.90;;
9948;SDS011;5013;51.840;8.276;2022-08-05T10:54:24;5.50;;;4.73;;
9948;SDS011;5013;51.840;8.276;2022-08-05T10:57:11;5.90;;;4.03;;
9948;SDS011;5013;51.840;8.276;2022-08-05T10:59:49;5.03;;;3.53;;
9948;SDS011;5013;51.840;8.276;2022-08-05T11:02:33;4.43;;;3.63;;
9948;SDS011;5013;51.840;8.276;2022-08-05T11:05:01;4.50;;;4.10;;
9948;SDS011;5013;51.840;8.276;2022-08-05T11:07:29;4.50;;;3.80;;
9948;SDS011;5013;51.840;8.276;2022-08-05T11:09:55;5.10;;;3.67;;
9948;SDS011;5013;51.840;8.276;2022-08-05T11:17:53;6.67;;;5.00;;
9948;SDS011;5013;51.840;8.276;2022-08-05T11:33:25;5.60;;;5.13;;
9948;SDS011;5013;51.840;8.276;2022-08-05T11:37:04;7.70;;;4.17;;
9948;SDS011;5013;51.840;8.276;2022-08-05T11:39:16;9.07;;;6.13;;
9948;SDS011;5013;51.840;8.276;2022-08-05T11:42:14;6.77;;;4.90;;
9948;SDS011;5013;51.840;8.276;2022-08-05T11:44:41;6.77;;;4.27;;
9948;SDS011;5013;51.840;8.276;2022-08-05T11:47:08;4.77;;;3.87;;
9948;SDS011;5013;51.840;8.276;2022-08-05T11:49:34;4.17;;;3.57;;
9948;SDS011;5013;51.840;8.276;2022-08-05T11:52:01;9.63;;;3.50;;
9948;SDS011;5013;51.840;8.276;2022-08-05T11:54:27;4.90;;;3.90;;
9948;SDS011;5013;51.840;8.276;2022-08-05T11:56:56;4.03;;;3.20;;
9948;SDS011;5013;51.840;8.276;2022-08-05T11:59:24;6.57;;;3.70;;
9948;SDS011;5013;51.840;8.276;2022-08-05T12:01:55;3.60;;;3.20;;
9948;SDS011;5013;51.840;8.276;2022-08-05T12:04:28;6.07;;;3.13;;
9948;SDS011;5013;51.840;8.276;2022-08-05T12:07:01;6.53;;;3.70;;
9948;SDS011;5013;51.840;8.276;2022-08-05T12:09:28;5.10;;;3.63;;
9948;SDS011;5013;51.840;8.276;2022-08-05T12:11:54;3.33;;;2.97;;
9948;SDS011;5013;51.840;8.276;2022-08-05T12:14:20;5.27;;;3.30;;
9948;SDS011;5013;51.840;8.276;2022-08-05T12:16:46;4.67;;;3.23;;
9948;SDS011;5013;51.840;8.276;2022-08-05T12:19:13;3.90;;;3.60;;
9948;SDS011;5013;51.840;8.276;2022-08-05T12:21:46;4.37;;;3.30;;
9948;SDS011;5013;51.840;8.276;2022-08-05T12:24:16;3.83;;;3.30;;
9948;SDS011;5013;51.840;8.276;2022-08-05T12:29:17;4.27;;;3.00;;
9948;SDS011;5013;51.840;8.276;2022-08-05T12:31:51;3.40;;;3.20;;
9948;SDS011;5013;51.840;8.276;2022-08-05T12:34:19;4.00;;;3.30;;
9948;SDS011;5013;51.840;8.276;2022-08-05T12:36:48;4.63;;;3.47;;
9948;SDS011;5013;51.840;8.276;2022-08-05T12:39:17;4.23;;;3.00;;
9948;SDS011;5013;51.840;8.276;2022-08-05T12:41:43;4.57;;;3.97;;
9948;SDS011;5013;51.840;8.276;2022-08-05T12:44:13;2.70;;;2.50;;
9948;SDS011;5013;51.840;8.276;2022-08-05T12:46:40;7.10;;;3.00;;
9948;SDS011;5013;51.840;8.276;2022-08-05T12:54:18;4.80;;;3.30;;
9948;SDS011;5013;51.840;8.276;2022-08-05T12:57:05;2.60;;;2.40;;
9948;SDS011;5013;51.840;8.276;2022-08-05T12:59:33;3.10;;;2.80;;
9948;SDS011;5013;51.840;8.276;2022-08-05T13:02:10;4.20;;;2.50;;
9948;SDS011;5013;51.840;8.276;2022-08-05T13:04:37;5.43;;;2.97;;
9948;SDS011;5013;51.840;8.276;2022-08-05T13:07:08;3.10;;;2.57;;
9948;SDS011;5013;51.840;8.276;2022-08-05T13:09:40;5.17;;;2.47;;
9948;SDS011;5013;51.840;8.276;2022-08-05T13:12:12;2.80;;;2.60;;
9948;SDS011;5013;51.840;8.276;2022-08-05T13:14:40;2.83;;;2.60;;
9948;SDS011;5013;51.840;8.276;2022-08-05T13:17:09;5.47;;;2.77;;
9948;SDS011;5013;51.840;8.276;2022-08-05T13:22:30;2.77;;;2.40;;
9948;SDS011;5013;51.840;8.276;2022-08-05T13:24:58;2.83;;;2.70;;
9948;SDS011;5013;51.840;8.276;2022-08-05T13:27:32;5.07;;;3.10;;
9948;SDS011;5013;51.840;8.276;2022-08-05T13:29:58;3.33;;;2.90;;
9948;SDS011;5013;51.840;8.276;2022-08-05T13:32:24;2.93;;;2.73;;
9948;SDS011;5013;51.840;8.276;2022-08-05T13:34:51;9.67;;;2.80;;
9948;SDS011;5013;51.840;8.276;2022-08-05T13:37:17;8.23;;;3.60;;
9948;SDS011;5013;51.840;8.276;2022-08-05T13:39:45;3.37;;;3.10;;
9948;SDS011;5013;51.840;8.276;2022-08-05T13:42:11;3.83;;;3.37;;
9948;SDS011;5013;51.840;8.276;2022-08-05T13:44:37;6.93;;;3.33;;
9948;SDS011;5013;51.840;8.276;2022-08-05T13:47:03;4.17;;;2.67;;
9948;SDS011;5013;51.840;8.276;2022-08-05T13:49:29;2.53;;;2.30;;
9948;SDS011;5013;51.840;8.276;2022-08-05T13:51:54;2.83;;;2.30;;
9948;SDS011;5013;51.840;8.276;2022-08-05T13:54:21;3.93;;;2.77;;
9948;SDS011;5013;51.840;8.276;2022-08-05T13:56:46;4.67;;;2.77;;
9948;SDS011;5013;51.840;8.276;2022-08-05T13:59:12;5.90;;;3.13;;
9948;SDS011;5013;51.840;8.276;2022-08-05T14:01:38;5.83;;;3.27;;
9948;SDS011;5013;51.840;8.276;2022-08-05T14:04:04;5.37;;;3.00;;
9948;SDS011;5013;51.840;8.276;2022-08-05T14:06:48;3.17;;;2.47;;
9948;SDS011;5013;51.840;8.276;2022-08-05T14:09:14;4.13;;;2.33;;
9948;SDS011;5013;51.840;8.276;2022-08-05T14:11:39;3.97;;;2.20;;
9948;SDS011;5013;51.840;8.276;2022-08-05T14:14:06;2.63;;;2.43;;
9948;SDS011;5013;51.840;8.276;2022-08-05T14:16:33;3.57;;;2.93;;
9948;SDS011;5013;51.840;8.276;2022-08-05T14:18:59;2.53;;;2.00;;
9948;SDS011;5013;51.840;8.276;2022-08-05T14:21:25;3.63;;;3.33;;
9948;SDS011;5013;51.840;8.276;2022-08-05T14:23:51;5.10;;;2.17;;
9948;SDS011;5013;51.840;8.276;2022-08-05T14:26:17;3.00;;;2.70;;
9948;SDS011;5013;51.840;8.276;2022-08-05T14:28:43;3.03;;;2.50;;
9948;SDS011;5013;51.840;8.276;2022-08-05T14:31:09;8.10;;;3.90;;
9948;SDS011;5013;51.840;8.276;2022-08-05T14:33:35;5.33;;;2.90;;
9948;SDS011;5013;51.840;8.276;2022-08-05T14:36:01;5.43;;;3.00;;
9948;SDS011;5013;51.840;8.276;2022-08-05T14:38:28;4.80;;;3.20;;
9948;SDS011;5013;51.840;8.276;2022-08-05T14:40:54;7.87;;;3.07;;
9948;SDS011;5013;51.840;8.276;2022-08-05T14:43:20;6.73;;;4.03;;
9948;SDS011;5013;51.840;8.276;2022-08-05T14:45:45;5.17;;;4.10;;
9948;SDS011;5013;51.840;8.276;2022-08-05T14:48:11;6.63;;;4.90;;
9948;SDS011;5013;51.840;8.276;2022-08-05T14:50:37;7.93;;;3.83;;
9948;SDS011;5013;51.840;8.276;2022-08-05T14:53:03;5.20;;;2.60;;
9948;SDS011;5013;51.840;8.276;2022-08-05T14:55:28;7.30;;;2.97;;
9948;SDS011;5013;51.840;8.276;2022-08-05T14:57:54;3.27;;;2.27;;
9948;SDS011;5013;51.840;8.276;2022-08-05T15:00:20;5.13;;;2.63;;
9948;SDS011;5013;51.840;8.276;2022-08-05T15:02:46;2.73;;;2.10;;
9948;SDS011;5013;51.840;8.276;2022-08-05T15:05:12;3.00;;;2.37;;
9948;SDS011;5013;51.840;8.276;2022-08-05T15:07:38;10.80;;;3.40;;
9948;SDS011;5013;51.840;8.276;2022-08-05T15:10:04;3.57;;;2.83;;
9948;SDS011;5013;51.840;8.276;2022-08-05T15:12:31;7.17;;;3.00;;
9948;SDS011;5013;51.840;8.276;2022-08-05T15:14:57;3.10;;;2.00;;
9948;SDS011;5013;51.840;8.276;2022-08-05T15:17:23;2.37;;;2.10;;
9948;SDS011;5013;51.840;8.276;2022-08-05T15:19:49;6.70;;;2.60;;
9948;SDS011;5013;51.840;8.276;2022-08-05T15:22:15;6.13;;;2.80;;
9948;SDS011;5013;51.840;8.276;2022-08-05T15:24:40;4.83;;;2.57;;
9948;SDS011;5013;51.840;8.276;2022-08-05T15:27:08;3.67;;;2.40;;
9948;SDS011;5013;51.840;8.276;2022-08-05T15:29:33;4.30;;;2.40;;
9948;SDS011;5013;51.840;8.276;2022-08-05T15:31:59;2.37;;;2.17;;
9948;SDS011;5013;51.840;8.276;2022-08-05T15:34:25;2.70;;;1.80;;
9948;SDS011;5013;51.840;8.276;2022-08-05T15:36:51;3.03;;;1.83;;
9948;SDS011;5013;51.840;8.276;2022-08-05T15:39:16;7.37;;;2.10;;
9948;SDS011;5013;51.840;8.276;2022-08-05T15:41:42;4.87;;;2.20;;
9948;SDS011;5013;51.840;8.276;2022-08-05T15:44:08;2.73;;;2.33;;
9948;SDS011;5013;51.840;8.276;2022-08-05T15:46:34;2.63;;;1.83;;
9948;SDS011;5013;51.840;8.276;2022-08-05T15:48:59;5.63;;;1.93;;
9948;SDS011;5013;51.840;8.276;2022-08-05T15:51:25;4.87;;;2.83;;
9948;SDS011;5013;51.840;8.276;2022-08-05T15:53:52;6.70;;;2.87;;
9948;SDS011;5013;51.840;8.276;2022-08-05T15:56:19;2.63;;;2.27;;
9948;SDS011;5013;51.840;8.276;2022-08-05T15:58:45;4.03;;;2.77;;
9948;SDS011;5013;51.840;8.276;2022-08-05T16:01:11;2.43;;;2.10;;
9948;SDS011;5013;51.840;8.276;2022-08-05T16:03:41;3.70;;;2.73;;
9948;SDS011;5013;51.840;8.276;2022-08-05T16:06:07;2.83;;;1.90;;